Aviation Digital Data Service (ADDS)

Output produced by METARs form (1705 UTC 24 April 2017)
found at http://www.aviationweather.gov/adds/metars/
 
GQPA 241500Z VRB04KT 8000 NSC 33/06 Q1016
GQNI 241200Z 36008KT CAVOK 328/02 Q////
GQPP 241700Z 33017KT 7000 NSC 23/16 Q1012 NOSIG
TAF GQPP 241100Z 2412/2512 36012G22KT 6000 NSC